createdAt,value
2022-12-18T00:00:09.304Z,84.58
2022-12-18T00:02:37.839Z,84.72
2022-12-18T00:05:07.758Z,84.97
2022-12-18T00:07:35.893Z,84.53
2022-12-18T00:10:04.310Z,84.69
2022-12-18T00:12:32.534Z,83.67
2022-12-18T00:15:01.058Z,84.46
2022-12-18T00:17:30.711Z,83.82
2022-12-18T00:19:58.822Z,83.68
2022-12-18T00:22:26.597Z,84.33
2022-12-18T00:24:54.421Z,82.81
2022-12-18T00:27:22.745Z,82.30
2022-12-18T00:29:51.069Z,82.47
2022-12-18T00:32:19.059Z,82.86
2022-12-18T00:34:48.562Z,82.34
2022-12-18T00:37:20.187Z,81.54
2022-12-18T00:39:51.210Z,81.88
2022-12-18T00:42:36.652Z,81.47
2022-12-18T00:45:09.181Z,82.55
2022-12-18T00:47:40.319Z,82.75
2022-12-18T00:50:11.778Z,83.83
2022-12-18T00:52:43.616Z,83.88
2022-12-18T00:55:12.970Z,83.94
2022-12-18T00:57:42.974Z,84.36
2022-12-18T01:00:15.040Z,83.71
2022-12-18T01:02:43.672Z,83.34
2022-12-18T01:05:14.880Z,83.74
2022-12-18T01:07:43.208Z,84.11
2022-12-18T01:10:13.780Z,84.37
2022-12-18T01:12:41.910Z,83.66
2022-12-18T01:15:11.902Z,84.18
2022-12-18T01:17:39.702Z,83.48
2022-12-18T01:20:11.146Z,83.44
2022-12-18T01:22:40.674Z,83.79
2022-12-18T01:25:09.981Z,83.86
2022-12-18T01:27:38.212Z,83.51
2022-12-18T01:30:07.199Z,83.31
2022-12-18T01:32:35.416Z,83.41
2022-12-18T01:35:04.295Z,83.12
2022-12-18T01:37:33.053Z,82.87
2022-12-18T01:40:02.708Z,83.59
2022-12-18T01:42:30.538Z,82.16
2022-12-18T01:45:05.790Z,82.03
2022-12-18T01:47:38.784Z,82.93
2022-12-18T01:50:11.169Z,82.81
2022-12-18T01:52:43.939Z,82.54
2022-12-18T01:55:15.393Z,82.60
2022-12-18T01:57:43.924Z,81.75
2022-12-18T02:00:15.015Z,82.15
2022-12-18T02:02:45.160Z,81.96
2022-12-18T02:05:15.470Z,81.92
2022-12-18T02:07:51.749Z,81.22
2022-12-18T02:10:26.850Z,81.77
2022-12-18T02:13:00.798Z,81.39
2022-12-18T02:15:36.613Z,82.26
2022-12-18T02:18:10.875Z,81.43
2022-12-18T02:20:43.948Z,82.10
2022-12-18T02:23:24.179Z,81.89
2022-12-18T02:26:13.300Z,81.75
2022-12-18T02:28:46.636Z,81.85
2022-12-18T02:31:25.985Z,82.46
2022-12-18T02:34:00.772Z,82.32
2022-12-18T02:36:30.814Z,81.75
2022-12-18T02:39:01.163Z,82.19
2022-12-18T02:41:32.594Z,82.19
2022-12-18T02:44:02.615Z,82.63
2022-12-18T02:46:37.279Z,83.10
2022-12-18T02:49:14.340Z,82.95
2022-12-18T02:51:53.487Z,83.00
2022-12-18T02:54:31.042Z,83.09
2022-12-18T02:57:08.500Z,82.68
2022-12-18T02:59:43.274Z,81.65
2022-12-18T03:02:21.973Z,81.42
2022-12-18T03:04:55.713Z,81.56
2022-12-18T03:07:35.679Z,81.60
2022-12-18T03:10:04.004Z,81.62
2022-12-18T03:12:40.212Z,79.78
2022-12-18T03:15:17.597Z,81.44
2022-12-18T03:17:52.171Z,82.61
2022-12-18T03:20:23.955Z,82.77
2022-12-18T03:22:55.465Z,82.88
2022-12-18T03:25:24.750Z,82.74
2022-12-18T03:27:58.382Z,83.41
2022-12-18T03:30:28.627Z,83.43
2022-12-18T03:33:03.046Z,82.76
2022-12-18T03:35:34.306Z,83.02
2022-12-18T03:38:02.195Z,82.98
2022-12-18T03:40:38.163Z,82.80
2022-12-18T03:43:12.759Z,83.13
2022-12-18T03:45:45.522Z,83.31
2022-12-18T03:48:20.218Z,83.36
2022-12-18T03:50:55.618Z,83.63
2022-12-18T03:53:30.988Z,82.81
2022-12-18T03:56:01.779Z,82.85
2022-12-18T03:58:33.814Z,82.50
2022-12-18T04:01:06.568Z,82.96
2022-12-18T04:03:36.486Z,83.03
2022-12-18T04:06:05.556Z,83.02
2022-12-18T04:08:35.855Z,82.76
2022-12-18T04:11:04.683Z,83.11
2022-12-18T04:13:38.256Z,83.18
2022-12-18T04:16:07.624Z,83.10
2022-12-18T04:18:36.770Z,83.31
2022-12-18T04:21:04.896Z,82.32
2022-12-18T04:23:32.973Z,82.52
2022-12-18T04:26:00.918Z,82.64
2022-12-18T04:28:29.096Z,83.01
2022-12-18T04:30:58.319Z,82.73
2022-12-18T04:33:27.248Z,82.35
2022-12-18T04:35:55.095Z,82.14
2022-12-18T04:38:23.283Z,82.34
2022-12-18T04:40:51.467Z,82.41
2022-12-18T04:43:20.119Z,82.99
2022-12-18T04:45:48.050Z,82.77
2022-12-18T04:48:17.291Z,82.71
2022-12-18T04:50:45.192Z,82.92
2022-12-18T04:53:13.255Z,82.62
2022-12-18T04:55:41.035Z,83.47
2022-12-18T04:58:09.451Z,82.88
2022-12-18T05:00:37.471Z,82.42
2022-12-18T05:03:05.359Z,83.12
2022-12-18T05:05:36.888Z,83.33
2022-12-18T05:08:04.983Z,83.28
2022-12-18T05:10:38.037Z,83.61
2022-12-18T05:13:06.380Z,83.69
2022-12-18T05:15:35.322Z,84.20
2022-12-18T05:18:04.664Z,84.26
2022-12-18T05:20:34.964Z,84.87
2022-12-18T05:23:02.999Z,85.63
2022-12-18T05:25:30.768Z,85.81
2022-12-18T05:27:59.101Z,85.00
2022-12-18T05:30:28.517Z,85.23
2022-12-18T05:32:59.071Z,85.36
2022-12-18T05:35:27.280Z,86.35
2022-12-18T05:37:56.790Z,86.22
2022-12-18T05:40:24.963Z,86.23
2022-12-18T05:42:53.059Z,87.12
2022-12-18T05:45:21.319Z,87.26
2022-12-18T05:47:49.534Z,86.78
2022-12-18T05:50:17.787Z,86.53
2022-12-18T05:52:45.893Z,87.09
2022-12-18T05:55:15.441Z,87.02
2022-12-18T05:57:43.256Z,87.00
2022-12-18T06:00:13.046Z,87.21
2022-12-18T06:02:41.004Z,87.05
2022-12-18T06:05:10.038Z,87.15
2022-12-18T06:07:37.782Z,87.13
2022-12-18T06:10:06.608Z,86.86
2022-12-18T06:12:35.789Z,86.88
2022-12-18T06:15:04.032Z,86.95
2022-12-18T06:17:34.962Z,87.31
2022-12-18T06:20:03.574Z,87.30
2022-12-18T06:22:33.606Z,87.51
2022-12-18T06:25:01.396Z,87.34
2022-12-18T06:27:29.387Z,87.02
2022-12-18T06:29:58.842Z,87.39
2022-12-18T06:32:27.020Z,87.57
2022-12-18T06:34:56.386Z,87.74
2022-12-18T06:37:27.030Z,87.71
2022-12-18T06:39:55.403Z,88.15
2022-12-18T06:42:26.200Z,87.04
2022-12-18T06:44:54.694Z,87.19
2022-12-18T06:47:23.879Z,87.98
2022-12-18T06:49:51.724Z,87.08
2022-12-18T06:52:21.773Z,87.68
2022-12-18T06:54:49.863Z,87.87
2022-12-18T06:57:17.662Z,87.07
2022-12-18T06:59:46.139Z,87.43
2022-12-18T07:02:15.262Z,87.62
2022-12-18T07:04:44.844Z,87.05
2022-12-18T07:07:13.143Z,87.74
2022-12-18T07:09:41.169Z,87.12
2022-12-18T07:12:09.054Z,87.86
2022-12-18T07:14:37.315Z,87.68
2022-12-18T07:17:05.827Z,87.83
2022-12-18T07:19:34.593Z,87.65
2022-12-18T07:22:04.355Z,88.05
2022-12-18T07:24:32.828Z,87.03
2022-12-18T07:27:00.949Z,86.72
2022-12-18T07:29:29.528Z,87.17
2022-12-18T07:31:57.358Z,87.42
2022-12-18T07:34:25.469Z,87.15
2022-12-18T07:36:53.529Z,87.06
2022-12-18T07:39:22.717Z,87.48
2022-12-18T07:42:11.110Z,87.59
2022-12-18T07:44:39.902Z,87.83
2022-12-18T07:47:11.965Z,87.38
2022-12-18T07:49:40.877Z,87.41
2022-12-18T07:52:09.455Z,87.75
2022-12-18T07:54:38.799Z,87.06
2022-12-18T07:57:21.278Z,86.98
2022-12-18T07:59:58.254Z,87.00
2022-12-18T08:02:26.604Z,87.64
2022-12-18T08:04:55.011Z,87.90
2022-12-18T08:07:22.798Z,87.92
2022-12-18T08:09:52.487Z,87.27
2022-12-18T08:12:20.421Z,87.78
2022-12-18T08:14:48.201Z,87.55
2022-12-18T08:17:16.556Z,87.53
2022-12-18T08:19:44.575Z,87.66
2022-12-18T08:22:12.476Z,87.75
2022-12-18T08:24:40.854Z,87.24
2022-12-18T08:29:58.592Z,86.66
2022-12-18T08:32:27.637Z,87.39
2022-12-18T08:34:56.162Z,86.78
2022-12-18T08:37:24.622Z,86.74
2022-12-18T08:39:52.620Z,87.00
2022-12-18T08:42:39.613Z,86.52
2022-12-18T08:45:08.496Z,87.15
2022-12-18T08:47:36.767Z,87.13
2022-12-18T08:50:07.140Z,86.22
2022-12-18T08:52:35.436Z,86.32
2022-12-18T08:55:03.311Z,85.68
2022-12-18T08:57:33.039Z,85.34
2022-12-18T09:00:01.203Z,86.17
2022-12-18T09:02:29.633Z,86.04
2022-12-18T09:04:58.379Z,85.70
2022-12-18T09:07:26.249Z,86.29
2022-12-18T09:09:54.473Z,86.23
2022-12-18T09:12:22.312Z,85.83
2022-12-18T09:14:51.531Z,85.73
2022-12-18T09:17:19.809Z,85.24
2022-12-18T09:19:47.650Z,85.21
2022-12-18T09:22:15.698Z,85.25
2022-12-18T09:24:44.162Z,84.60
2022-12-18T09:27:12.205Z,84.42
2022-12-18T09:29:40.339Z,84.27
2022-12-18T09:32:10.159Z,84.07
2022-12-18T09:34:37.955Z,82.68
2022-12-18T09:37:06.290Z,84.03
2022-12-18T09:39:34.200Z,83.99
2022-12-18T09:42:02.102Z,83.88
2022-12-18T09:44:41.455Z,83.36
2022-12-18T09:47:18.268Z,83.08
2022-12-18T09:49:48.970Z,82.46
2022-12-18T09:52:22.492Z,81.93
2022-12-18T09:54:55.223Z,81.59
2022-12-18T09:57:25.482Z,82.24
2022-12-18T09:59:57.090Z,81.97
2022-12-18T10:02:28.626Z,81.29
2022-12-18T10:05:08.305Z,80.55
2022-12-18T10:07:49.708Z,80.98
2022-12-18T10:10:29.836Z,80.49
2022-12-18T10:13:08.933Z,80.28
2022-12-18T10:15:46.879Z,79.16
2022-12-18T10:18:33.313Z,79.83
2022-12-18T10:21:09.679Z,79.61
2022-12-18T10:23:48.403Z,78.52
2022-12-18T10:26:17.892Z,78.20
2022-12-18T10:28:47.191Z,77.59
2022-12-18T10:31:18.261Z,77.38
2022-12-18T10:33:47.841Z,77.26
2022-12-18T10:36:16.982Z,77.14
2022-12-18T10:38:45.898Z,76.71
2022-12-18T10:41:29.534Z,77.28
2022-12-18T10:44:21.654Z,75.80
2022-12-18T10:46:52.648Z,76.31
2022-12-18T10:49:26.777Z,75.52
2022-12-18T10:52:09.367Z,74.45
2022-12-18T10:54:38.954Z,75.90
2022-12-18T10:57:18.136Z,75.22
2022-12-18T10:59:53.842Z,75.12
2022-12-18T11:02:30.717Z,74.64
2022-12-18T11:05:00.752Z,74.49
2022-12-18T11:07:50.347Z,73.73
2022-12-18T11:10:21.455Z,73.92
2022-12-18T11:12:49.501Z,73.84
2022-12-18T11:15:24.204Z,73.25
2022-12-18T11:17:54.978Z,73.94
2022-12-18T11:20:33.197Z,74.10
2022-12-18T11:23:02.943Z,73.50
2022-12-18T11:25:34.421Z,73.33
2022-12-18T11:28:06.442Z,73.62
2022-12-18T11:30:35.906Z,72.80
2022-12-18T11:33:08.156Z,72.94
2022-12-18T11:36:00.359Z,73.08
2022-12-18T11:38:31.361Z,72.83
2022-12-18T11:41:04.236Z,71.57
2022-12-18T11:43:36.513Z,72.51
2022-12-18T11:46:08.103Z,72.22
2022-12-18T11:48:45.224Z,70.43
2022-12-18T11:51:26.213Z,71.37
2022-12-18T11:53:56.419Z,71.71
2022-12-18T11:56:34.557Z,71.54
2022-12-18T11:59:16.339Z,72.12
2022-12-18T12:01:52.114Z,73.36
2022-12-18T12:04:44.657Z,72.09
2022-12-18T12:07:26.207Z,72.70
2022-12-18T12:10:06.870Z,71.61
2022-12-18T12:12:50.332Z,71.92
2022-12-18T12:15:31.607Z,71.58
2022-12-18T12:18:11.129Z,71.64
2022-12-18T12:20:50.096Z,71.68
2022-12-18T12:23:28.766Z,72.49
2022-12-18T12:26:04.436Z,72.02
2022-12-18T12:28:53.162Z,71.15
2022-12-18T12:31:31.646Z,71.70
2022-12-18T12:34:10.090Z,72.22
2022-12-18T12:36:51.407Z,72.99
2022-12-18T12:39:25.621Z,73.17
2022-12-18T12:42:15.186Z,72.66
2022-12-18T12:44:57.166Z,72.81
2022-12-18T12:47:31.216Z,72.94
2022-12-18T12:50:01.560Z,73.15
2022-12-18T12:52:37.286Z,73.09
2022-12-18T12:55:15.665Z,72.27
2022-12-18T12:57:51.356Z,72.28
2022-12-18T13:00:21.405Z,72.41
2022-12-18T13:03:01.151Z,72.92
2022-12-18T13:05:36.184Z,72.66
2022-12-18T13:08:07.626Z,72.54
2022-12-18T13:10:38.813Z,72.99
2022-12-18T13:16:07.125Z,72.32
2022-12-18T13:18:36.026Z,72.63
2022-12-18T13:21:11.517Z,73.05
2022-12-18T13:23:42.890Z,73.50
2022-12-18T13:26:34.366Z,74.34
2022-12-18T13:29:05.174Z,74.13
2022-12-18T13:32:10.860Z,73.57
2022-12-18T13:34:39.284Z,73.69
2022-12-18T13:37:46.138Z,74.20
2022-12-18T13:40:59.892Z,74.25
2022-12-18T13:43:42.570Z,74.08
2022-12-18T13:46:31.726Z,74.12
2022-12-18T13:49:04.915Z,74.14
2022-12-18T13:51:36.007Z,74.35
2022-12-18T13:54:17.303Z,73.86
2022-12-18T13:56:47.647Z,74.19
2022-12-18T13:59:23.067Z,74.37
2022-12-18T14:01:56.015Z,74.66
2022-12-18T14:04:29.069Z,75.15
2022-12-18T14:07:04.052Z,75.11
2022-12-18T14:09:37.807Z,75.01
2022-12-18T14:12:25.822Z,75.58
2022-12-18T14:14:55.582Z,75.45
2022-12-18T14:17:25.122Z,75.75
2022-12-18T14:19:55.545Z,75.97
2022-12-18T14:22:28.817Z,76.49
2022-12-18T14:25:17.672Z,76.17
2022-12-18T14:27:47.928Z,76.34
2022-12-18T14:30:42.561Z,76.94
2022-12-18T14:33:12.808Z,77.00
2022-12-18T14:35:43.530Z,77.12
2022-12-18T14:38:24.618Z,77.44
2022-12-18T14:40:58.780Z,77.88
2022-12-18T14:43:26.853Z,77.84
2022-12-18T14:45:57.373Z,78.55
2022-12-18T14:48:37.534Z,78.28
2022-12-18T14:51:07.816Z,78.67
2022-12-18T14:53:40.975Z,78.71
2022-12-18T14:56:18.821Z,79.32
2022-12-18T14:58:49.448Z,79.62
2022-12-18T15:01:25.176Z,79.65
2022-12-18T15:03:54.839Z,79.99
2022-12-18T15:06:34.940Z,80.12
2022-12-18T15:09:07.945Z,80.45
2022-12-18T15:11:45.674Z,80.63
2022-12-18T15:14:34.560Z,80.74
2022-12-18T15:17:07.139Z,81.19
2022-12-18T15:19:40.837Z,81.31
2022-12-18T15:22:22.500Z,81.49
2022-12-18T15:24:50.922Z,81.96
2022-12-18T15:27:29.691Z,81.67
2022-12-18T15:30:24.579Z,82.15
2022-12-18T15:32:55.576Z,82.54
2022-12-18T15:35:25.853Z,82.76
2022-12-18T15:37:54.580Z,82.52
2022-12-18T15:40:25.077Z,82.68
2022-12-18T15:43:14.264Z,83.01
2022-12-18T15:45:42.120Z,82.47
2022-12-18T15:48:22.561Z,82.73
2022-12-18T15:50:54.696Z,83.24
2022-12-18T15:53:23.213Z,82.98
2022-12-18T15:56:08.757Z,83.12
2022-12-18T15:58:37.136Z,83.64
2022-12-18T16:01:05.250Z,83.69
2022-12-18T16:03:34.621Z,83.94
2022-12-18T16:06:04.699Z,83.79
2022-12-18T16:08:32.761Z,83.11
2022-12-18T16:11:02.173Z,83.98
2022-12-18T16:13:30.499Z,83.23
2022-12-18T16:15:59.022Z,83.08
2022-12-18T16:18:28.004Z,83.74
2022-12-18T16:20:57.637Z,83.85
2022-12-18T16:23:25.537Z,84.21
2022-12-18T16:25:53.695Z,84.33
2022-12-18T16:28:22.471Z,84.26
2022-12-18T16:30:50.320Z,83.77
2022-12-18T16:33:18.303Z,84.46
2022-12-18T16:35:54.271Z,84.50
2022-12-18T16:38:23.554Z,84.53
2022-12-18T16:41:09.500Z,84.99
2022-12-18T16:43:37.688Z,84.90
2022-12-18T16:46:05.678Z,84.58
2022-12-18T16:48:33.777Z,84.49
2022-12-18T16:51:05.308Z,84.86
2022-12-18T16:53:36.092Z,84.92
2022-12-18T16:56:04.629Z,84.58
2022-12-18T16:58:34.785Z,84.73
2022-12-18T17:01:03.059Z,85.11
2022-12-18T17:03:31.376Z,85.20
2022-12-18T17:06:04.760Z,84.72
2022-12-18T17:08:32.758Z,84.78
2022-12-18T17:11:08.367Z,84.81
2022-12-18T17:13:37.854Z,84.83
2022-12-18T17:16:06.983Z,85.38
2022-12-18T17:18:36.232Z,84.91
2022-12-18T17:21:06.060Z,84.76
2022-12-18T17:23:33.878Z,85.04
2022-12-18T17:26:03.130Z,84.90
2022-12-18T17:28:32.684Z,85.14
2022-12-18T17:31:00.725Z,85.17
2022-12-18T17:33:29.320Z,84.43
2022-12-18T17:36:00.445Z,84.59
2022-12-18T17:38:28.459Z,84.88
2022-12-18T17:40:56.922Z,84.55
2022-12-18T17:43:24.759Z,84.47
2022-12-18T17:45:54.150Z,84.50
2022-12-18T17:48:23.924Z,84.21
2022-12-18T17:50:52.474Z,84.41
2022-12-18T17:53:21.815Z,84.42
2022-12-18T17:55:56.715Z,85.02
2022-12-18T17:58:24.749Z,84.36
2022-12-18T18:00:54.056Z,84.56
2022-12-18T18:03:23.063Z,83.59
2022-12-18T18:05:56.050Z,84.13
2022-12-18T18:08:24.368Z,84.27
2022-12-18T18:10:52.400Z,84.24
2022-12-18T18:13:46.430Z,83.93
2022-12-18T18:16:16.180Z,84.21
2022-12-18T18:18:44.490Z,84.36
2022-12-18T18:21:12.429Z,84.56
2022-12-18T18:23:43.060Z,84.50
2022-12-18T18:26:13.260Z,84.69
2022-12-18T18:28:41.344Z,84.25
2022-12-18T18:31:10.848Z,84.34
2022-12-18T18:33:40.806Z,84.17
2022-12-18T18:36:12.569Z,83.92
2022-12-18T18:38:46.753Z,84.08
2022-12-18T18:41:16.692Z,84.05
2022-12-18T18:43:45.145Z,83.93
2022-12-18T18:46:14.919Z,84.01
2022-12-18T18:48:44.154Z,83.57
2022-12-18T18:51:19.563Z,83.44
2022-12-18T18:53:51.473Z,84.22
2022-12-18T18:59:11.332Z,83.22
2022-12-18T19:01:39.979Z,83.83
2022-12-18T19:04:09.575Z,83.45
2022-12-18T19:06:37.831Z,83.64
2022-12-18T19:09:07.402Z,83.62
2022-12-18T19:11:52.770Z,83.90
2022-12-18T19:14:21.608Z,84.15
2022-12-18T19:16:49.427Z,84.10
2022-12-18T19:19:23.146Z,84.00
2022-12-18T19:21:51.590Z,83.91
2022-12-18T19:24:21.420Z,84.08
2022-12-18T19:26:51.937Z,84.24
2022-12-18T19:29:20.275Z,84.61
2022-12-18T19:31:48.134Z,84.04
2022-12-18T19:34:18.355Z,84.39
2022-12-18T19:36:47.215Z,84.05
2022-12-18T19:39:19.430Z,84.14
2022-12-18T19:41:48.408Z,83.97
2022-12-18T19:44:18.408Z,84.04
2022-12-18T19:46:47.486Z,83.97
2022-12-18T19:49:16.750Z,83.81
2022-12-18T19:51:47.317Z,83.73
2022-12-18T19:54:18.323Z,83.86
2022-12-18T19:56:47.271Z,83.76
2022-12-18T19:59:15.455Z,83.94
2022-12-18T20:01:44.742Z,83.62
2022-12-18T20:04:13.005Z,84.18
2022-12-18T20:06:51.364Z,83.19
2022-12-18T20:09:20.000Z,83.57
2022-12-18T20:11:49.614Z,83.11
2022-12-18T20:14:19.666Z,83.45
2022-12-18T20:16:52.600Z,83.56
2022-12-18T20:19:22.185Z,83.42
2022-12-18T20:21:52.370Z,83.32
2022-12-18T20:24:22.023Z,83.03
2022-12-18T20:26:50.544Z,83.57
2022-12-18T20:29:19.135Z,83.11
2022-12-18T20:31:47.044Z,82.86
2022-12-18T20:34:14.887Z,83.15
2022-12-18T20:36:44.364Z,83.24
2022-12-18T20:39:14.396Z,83.16
2022-12-18T20:41:44.223Z,83.20
2022-12-18T20:44:22.455Z,82.83
2022-12-18T20:46:52.714Z,83.02
2022-12-18T20:49:21.388Z,82.29
2022-12-18T20:51:51.947Z,81.36
2022-12-18T20:54:26.290Z,81.16
2022-12-18T20:56:54.361Z,81.55
2022-12-18T20:59:23.361Z,81.04
2022-12-18T21:01:53.532Z,81.59
2022-12-18T21:04:22.825Z,81.78
2022-12-18T21:07:00.501Z,81.79
2022-12-18T21:09:38.188Z,82.33
2022-12-18T21:12:25.854Z,82.59
2022-12-18T21:14:54.308Z,81.45
2022-12-18T21:17:22.198Z,82.26
2022-12-18T21:19:50.090Z,82.05
2022-12-18T21:22:18.742Z,82.21
2022-12-18T21:24:50.656Z,82.21
2022-12-18T21:27:18.889Z,82.14
2022-12-18T21:29:47.474Z,82.22
2022-12-18T21:32:15.516Z,82.18
2022-12-18T21:34:47.988Z,82.16
2022-12-18T21:37:16.518Z,82.28
2022-12-18T21:39:44.921Z,82.69
2022-12-18T21:42:31.623Z,83.22
2022-12-18T21:45:00.255Z,82.76
2022-12-18T21:47:28.287Z,82.69
2022-12-18T21:49:56.055Z,82.94
2022-12-18T21:52:31.582Z,82.71
2022-12-18T21:55:06.243Z,82.93
2022-12-18T21:57:38.448Z,83.52
2022-12-18T22:00:07.827Z,83.77
2022-12-18T22:02:36.057Z,83.46
2022-12-18T22:05:06.703Z,83.49
2022-12-18T22:07:35.714Z,83.33
2022-12-18T22:10:03.610Z,83.29
2022-12-18T22:12:44.550Z,83.53
2022-12-18T22:15:18.313Z,83.44
2022-12-18T22:17:55.210Z,83.16
2022-12-18T22:20:30.018Z,83.47
2022-12-18T22:22:58.258Z,83.60
2022-12-18T22:25:26.249Z,83.81
2022-12-18T22:28:08.356Z,83.86
2022-12-18T22:30:37.875Z,83.38
2022-12-18T22:33:06.143Z,83.06
2022-12-18T22:35:34.727Z,82.77
2022-12-18T22:38:02.835Z,82.91
2022-12-18T22:40:30.890Z,82.45
2022-12-18T22:42:59.171Z,82.80
2022-12-18T22:45:27.918Z,82.97
2022-12-18T22:47:57.227Z,83.04
2022-12-18T22:50:25.344Z,83.05
2022-12-18T22:52:53.511Z,82.90
2022-12-18T22:55:21.308Z,83.12
2022-12-18T22:57:50.972Z,83.30
2022-12-18T23:00:24.189Z,83.37
2022-12-18T23:02:59.958Z,83.44
2022-12-18T23:05:32.259Z,83.24
2022-12-18T23:08:00.819Z,83.09
2022-12-18T23:10:29.193Z,83.50
2022-12-18T23:12:58.322Z,83.49
2022-12-18T23:15:28.342Z,83.74
2022-12-18T23:17:57.842Z,83.56
2022-12-18T23:20:26.675Z,83.94
2022-12-18T23:22:56.167Z,83.99
2022-12-18T23:25:25.030Z,84.02
2022-12-18T23:27:53.131Z,83.95
2022-12-18T23:30:21.166Z,84.29
2022-12-18T23:32:49.067Z,84.33
2022-12-18T23:35:17.377Z,84.23
2022-12-18T23:38:01.204Z,84.06
2022-12-18T23:40:31.568Z,84.26
2022-12-18T23:43:00.590Z,83.71
2022-12-18T23:45:28.478Z,83.83
2022-12-18T23:47:57.013Z,83.80
2022-12-18T23:50:28.846Z,83.92
2022-12-18T23:53:02.101Z,83.80
2022-12-18T23:55:38.545Z,83.79
2022-12-18T23:58:06.863Z,83.25
